createdAt,value
2022-10-11T00:01:00.024Z,101490.73
2022-10-11T00:03:35.750Z,101503.65
2022-10-11T00:06:06.172Z,101509.82
2022-10-11T00:08:35.562Z,101511.30
2022-10-11T00:11:06.762Z,101507.57
2022-10-11T00:13:35.735Z,101509.16
2022-10-11T00:16:09.239Z,101512.44
2022-10-11T00:18:38.135Z,101509.01
2022-10-11T00:21:10.308Z,101482.96
2022-10-11T00:23:39.282Z,101508.64
2022-10-11T00:26:09.795Z,101504.09
2022-10-11T00:28:39.523Z,101505.94
2022-10-11T00:31:13.771Z,101506.30
2022-10-11T00:33:42.294Z,101504.09
2022-10-11T00:36:13.837Z,101503.29
2022-10-11T00:38:42.093Z,101501.40
2022-10-11T00:41:10.818Z,101495.63
2022-10-11T00:43:39.342Z,101498.00
2022-10-11T00:46:13.642Z,101501.76
2022-10-11T00:48:44.336Z,101485.21
2022-10-11T00:51:26.163Z,101493.95
2022-10-11T00:53:54.538Z,101486.10
2022-10-11T00:56:27.715Z,101428.86
2022-10-11T00:58:57.977Z,101476.11
2022-10-11T01:01:26.756Z,101476.14
2022-10-11T01:03:56.058Z,101479.23
2022-10-11T01:06:24.637Z,101478.27
2022-10-11T01:08:53.418Z,101478.39
2022-10-11T01:11:25.773Z,101475.84
2022-10-11T01:14:16.613Z,101477.25
2022-10-11T01:16:57.943Z,101466.54
2022-10-11T01:19:48.006Z,101488.37
2022-10-11T01:22:51.701Z,101485.38
2022-10-11T01:25:39.573Z,101485.55
2022-10-11T01:28:19.020Z,101472.48
2022-10-11T01:30:47.505Z,101480.59
2022-10-11T01:33:32.762Z,101482.59
2022-10-11T01:36:28.248Z,101477.65
2022-10-11T01:39:05.176Z,101481.89
2022-10-11T01:41:42.285Z,101482.34
2022-10-11T01:44:13.605Z,101478.01
2022-10-11T01:46:42.384Z,101477.73
2022-10-11T01:49:11.209Z,101480.27
2022-10-11T01:51:47.642Z,101491.41
2022-10-11T01:55:08.030Z,101491.81
2022-10-11T01:57:46.778Z,101502.65
2022-10-11T02:00:24.597Z,101508.39
2022-10-11T02:02:59.219Z,101507.25
2022-10-11T02:05:57.911Z,101509.40
2022-10-11T02:08:39.030Z,101512.16
2022-10-11T02:11:17.400Z,101480.76
2022-10-11T02:13:57.808Z,101503.42
2022-10-11T02:16:32.792Z,101504.65
2022-10-11T02:19:05.553Z,101503.07
2022-10-11T02:21:36.404Z,101509.80
2022-10-11T02:24:11.710Z,101503.25
2022-10-11T02:26:44.455Z,101505.65
2022-10-11T02:29:16.883Z,101522.15
2022-10-11T02:31:45.835Z,101530.00
2022-10-11T02:34:16.885Z,101524.88
2022-10-11T02:36:59.124Z,101527.05
2022-10-11T02:39:35.734Z,101526.55
2022-10-11T02:42:07.163Z,101522.95
2022-10-11T02:45:01.279Z,101527.55
2022-10-11T02:47:30.636Z,101524.34
2022-10-11T02:49:59.974Z,101524.90
2022-10-11T02:52:28.262Z,101523.06
2022-10-11T02:54:56.614Z,101523.90
2022-10-11T02:57:24.699Z,101530.40
2022-10-11T02:59:52.735Z,101530.44
2022-10-11T03:02:20.899Z,101525.42
2022-10-11T03:04:49.031Z,101525.20
2022-10-11T03:07:17.116Z,101531.42
2022-10-11T03:09:45.488Z,101529.27
2022-10-11T03:12:13.828Z,101516.10
2022-10-11T03:14:41.908Z,101532.02
2022-10-11T03:17:34.368Z,101532.04
2022-10-11T03:19:58.165Z,101538.68
2022-10-11T03:22:27.068Z,101542.54
2022-10-11T03:24:57.513Z,101547.98
2022-10-11T03:27:29.168Z,101551.91
2022-10-11T03:29:58.593Z,101560.18
2022-10-11T03:32:27.145Z,101563.91
2022-10-11T03:34:55.256Z,101565.12
2022-10-11T03:37:23.571Z,101567.12
2022-10-11T03:39:51.649Z,101564.87
2022-10-11T03:42:20.189Z,101566.52
2022-10-11T03:44:50.396Z,101569.69
2022-10-11T03:47:18.492Z,101569.32
2022-10-11T03:49:46.592Z,101573.08
2022-10-11T03:52:14.700Z,101572.59
2022-10-11T03:54:43.213Z,101575.61
2022-10-11T03:57:11.316Z,101578.13
2022-10-11T03:59:39.533Z,101579.84
2022-10-11T04:02:07.705Z,101578.52
2022-10-11T04:04:36.826Z,101578.20
2022-10-11T04:07:04.930Z,101579.19
2022-10-11T04:09:32.958Z,101570.15
2022-10-11T04:12:01.042Z,101587.78
2022-10-11T04:14:29.220Z,101587.21
2022-10-11T04:17:00.249Z,101575.29
2022-10-11T04:19:28.985Z,101590.22
2022-10-11T04:21:57.084Z,101589.86
2022-10-11T04:24:25.120Z,101592.17
2022-10-11T04:26:53.288Z,101599.65
2022-10-11T04:29:21.913Z,101603.73
2022-10-11T04:31:50.236Z,101605.99
2022-10-11T04:34:18.460Z,101612.46
2022-10-11T04:36:49.914Z,101610.64
2022-10-11T04:39:18.143Z,101611.58
2022-10-11T04:41:46.297Z,101614.86
2022-10-11T04:44:14.498Z,101618.00
2022-10-11T04:46:42.609Z,101619.65
2022-10-11T04:49:10.632Z,101628.00
2022-10-11T04:51:38.679Z,101629.30
2022-10-11T04:54:06.720Z,101635.17
2022-10-11T04:56:34.751Z,101632.71
2022-10-11T04:59:02.799Z,101632.65
2022-10-11T05:01:30.835Z,101633.15
2022-10-11T05:03:59.323Z,101639.15
2022-10-11T05:06:27.413Z,101641.71
2022-10-11T05:08:55.943Z,101642.34
2022-10-11T05:11:27.598Z,101645.73
2022-10-11T05:13:56.734Z,101649.33
2022-10-11T05:16:24.842Z,101650.94
2022-10-11T05:18:53.194Z,101657.01
2022-10-11T05:21:26.364Z,101660.67
2022-10-11T05:23:57.646Z,101655.08
2022-10-11T05:26:27.827Z,101674.87
2022-10-11T05:28:56.736Z,101680.23
2022-10-11T05:31:25.143Z,101665.61
2022-10-11T05:33:53.326Z,101686.08
2022-10-11T05:36:22.111Z,101685.70
2022-10-11T05:38:50.278Z,101693.98
2022-10-11T05:41:18.450Z,101697.23
2022-10-11T05:43:46.684Z,101687.15
2022-10-11T05:46:15.125Z,101706.90
2022-10-11T05:48:43.255Z,101710.73
2022-10-11T05:51:12.279Z,101711.17
2022-10-11T05:53:40.567Z,101717.15
2022-10-11T05:56:23.326Z,101717.41
2022-10-11T05:58:51.731Z,101721.74
2022-10-11T06:01:25.458Z,101721.58
2022-10-11T06:03:54.125Z,101714.48
2022-10-11T06:06:22.517Z,101735.88
2022-10-11T06:08:50.895Z,101743.23
2022-10-11T06:11:25.507Z,101745.83
2022-10-11T06:13:55.338Z,101747.11
2022-10-11T06:16:23.657Z,101756.00
2022-10-11T06:18:56.327Z,101756.50
2022-10-11T06:21:24.592Z,101761.40
2022-10-11T06:23:58.307Z,101762.98
2022-10-11T06:26:30.133Z,101766.72
2022-10-11T06:28:59.100Z,101775.16
2022-10-11T06:31:27.337Z,101780.89
2022-10-11T06:33:55.313Z,101786.98
2022-10-11T06:36:23.446Z,101793.16
2022-10-11T06:38:52.888Z,101793.52
2022-10-11T06:41:25.219Z,101801.54
2022-10-11T06:43:53.516Z,101792.80
2022-10-11T06:46:23.965Z,101813.13
2022-10-11T06:48:54.001Z,101813.53
2022-10-11T06:51:22.996Z,101813.48
2022-10-11T06:53:52.262Z,101817.55
2022-10-11T06:56:20.677Z,101819.36
2022-10-11T06:58:48.854Z,101820.16
2022-10-11T07:01:19.264Z,101826.45
2022-10-11T07:03:49.661Z,101827.27
2022-10-11T07:06:21.562Z,101830.30
2022-10-11T07:08:49.986Z,101835.81
2022-10-11T07:11:21.180Z,101813.52
2022-10-11T07:14:09.698Z,101847.57
2022-10-11T07:16:38.335Z,101845.98
2022-10-11T07:19:07.967Z,101851.38
2022-10-11T07:21:36.791Z,101856.88
2022-10-11T07:24:05.418Z,101856.45
2022-10-11T07:26:38.264Z,101854.84
2022-10-11T07:29:10.974Z,101860.38
2022-10-11T07:31:40.825Z,101862.20
2022-10-11T07:34:09.626Z,101865.76
2022-10-11T07:36:37.731Z,101871.88
2022-10-11T07:39:07.826Z,101872.65
2022-10-11T07:41:38.847Z,101878.74
2022-10-11T07:44:08.772Z,101881.44
2022-10-11T07:46:36.902Z,101885.13
2022-10-11T07:49:07.512Z,101887.83
2022-10-11T07:51:35.755Z,101889.63
2022-10-11T07:54:07.158Z,101892.66
2022-10-11T07:56:37.630Z,101896.89
2022-10-11T07:59:06.522Z,101901.09
2022-10-11T08:01:34.703Z,101889.48
2022-10-11T08:04:02.937Z,101907.46
2022-10-11T08:06:32.854Z,101910.13
2022-10-11T08:09:02.385Z,101914.23
2022-10-11T08:11:33.656Z,101918.46
2022-10-11T08:14:04.590Z,101917.81
2022-10-11T08:16:32.772Z,101919.79
2022-10-11T08:19:03.070Z,101924.18
2022-10-11T08:21:31.865Z,101926.38
2022-10-11T08:24:02.018Z,101915.39
2022-10-11T08:26:30.912Z,101926.80
2022-10-11T08:29:02.328Z,101928.89
2022-10-11T08:31:31.218Z,101932.88
2022-10-11T08:33:59.282Z,101932.05
2022-10-11T08:36:27.347Z,101936.45
2022-10-11T08:38:55.356Z,101940.05
2022-10-11T08:41:49.862Z,101940.36
2022-10-11T08:45:14.528Z,101944.33
2022-10-11T08:47:46.998Z,101943.71
2022-10-11T08:50:22.473Z,101939.83
2022-10-11T08:52:59.539Z,101953.02
2022-10-11T08:55:32.778Z,101953.55
2022-10-11T08:58:01.293Z,101956.27
2022-10-11T09:00:33.386Z,101960.42
2022-10-11T09:03:09.232Z,101962.69
2022-10-11T09:06:16.346Z,101966.13
2022-10-11T09:09:29.054Z,101967.27
2022-10-11T09:12:03.389Z,101970.77
2022-10-11T09:15:10.998Z,101972.08
2022-10-11T09:18:00.710Z,101977.96
2022-10-11T09:20:36.279Z,101973.55
2022-10-11T09:23:22.962Z,101982.83
2022-10-11T09:26:06.361Z,101982.90
2022-10-11T09:28:55.150Z,101985.58
2022-10-11T09:31:27.981Z,101987.79
2022-10-11T09:33:56.278Z,101995.23
2022-10-11T09:36:50.149Z,101991.05
2022-10-11T09:39:24.081Z,101995.89
2022-10-11T09:42:07.902Z,102000.02
2022-10-11T09:44:37.970Z,101996.93
2022-10-11T09:47:07.405Z,102006.32
2022-10-11T09:49:42.054Z,102015.35
2022-10-11T09:52:16.885Z,102018.05
2022-10-11T09:54:52.163Z,102020.00
2022-10-11T09:57:29.034Z,102023.11
2022-10-11T10:00:06.474Z,102026.36
2022-10-11T10:02:44.075Z,102032.81
2022-10-11T10:05:16.985Z,102028.95
2022-10-11T10:08:05.225Z,102029.59
2022-10-11T10:10:43.589Z,102031.63
2022-10-11T10:13:28.133Z,102036.75
2022-10-11T10:16:01.125Z,102041.23
2022-10-11T10:18:37.519Z,102035.45
2022-10-11T10:21:10.433Z,102036.45
2022-10-11T10:23:38.897Z,102037.23
2022-10-11T10:26:17.544Z,102032.83
2022-10-11T10:29:08.629Z,102030.90
2022-10-11T10:32:08.807Z,102035.16
2022-10-11T10:34:27.709Z,102031.84
2022-10-11T10:37:02.630Z,102039.02
2022-10-11T10:39:56.810Z,102039.80
2022-10-11T10:42:24.845Z,102032.09
2022-10-11T10:44:57.081Z,102047.65
2022-10-11T10:47:57.745Z,102048.45
2022-10-11T10:50:32.769Z,102052.69
2022-10-11T10:53:12.605Z,102056.16
2022-10-11T10:55:44.621Z,102055.34
2022-10-11T10:58:51.102Z,102055.70
2022-10-11T11:01:27.543Z,102059.77
2022-10-11T11:04:19.613Z,102060.69
2022-10-11T11:06:58.002Z,102064.23
2022-10-11T11:09:44.201Z,102056.39
2022-10-11T11:12:23.965Z,102065.18
2022-10-11T11:15:00.545Z,102066.42
2022-10-11T11:17:37.611Z,102065.56
2022-10-11T11:20:27.137Z,102064.67
2022-10-11T11:23:09.132Z,102067.60
2022-10-11T11:26:00.078Z,102073.19
2022-10-11T11:28:46.396Z,102069.10
2022-10-11T11:31:30.533Z,102074.15
2022-10-11T11:34:19.122Z,102075.80
2022-10-11T11:36:54.264Z,102082.37
2022-10-11T11:39:27.945Z,102091.13
2022-10-11T11:41:58.554Z,102097.45
2022-10-11T11:44:47.412Z,102093.50
2022-10-11T11:47:37.192Z,102091.13
2022-10-11T11:50:23.093Z,102095.61
2022-10-11T11:52:58.470Z,102097.90
2022-10-11T11:55:36.576Z,102095.95
2022-10-11T11:58:42.333Z,102099.33
2022-10-11T12:01:30.947Z,102107.98
2022-10-11T12:04:07.092Z,102110.52
2022-10-11T12:06:43.704Z,102111.70
2022-10-11T12:09:25.624Z,102111.23
2022-10-11T12:12:03.577Z,102108.70
2022-10-11T12:14:34.665Z,102103.38
2022-10-11T12:17:16.765Z,102089.70
2022-10-11T12:20:10.940Z,102088.97
2022-10-11T12:23:19.962Z,102085.82
2022-10-11T12:26:27.822Z,102081.52
2022-10-11T12:29:46.142Z,102078.21
2022-10-11T12:32:29.204Z,102075.22
2022-10-11T12:35:48.125Z,102089.60
2022-10-11T12:38:34.029Z,102090.62
2022-10-11T12:41:11.223Z,102097.27
2022-10-11T12:43:48.216Z,102091.54
2022-10-11T12:46:33.973Z,102100.69
2022-10-11T12:49:24.162Z,102102.75
2022-10-11T12:52:02.580Z,102105.20
2022-10-11T12:54:45.909Z,102111.44
2022-10-11T12:57:45.320Z,102111.50
2022-10-11T13:00:30.084Z,102116.70
2022-10-11T13:03:05.521Z,102117.41
2022-10-11T13:05:49.734Z,102117.80
2022-10-11T13:08:31.592Z,102112.92
2022-10-11T13:11:04.661Z,102114.36
2022-10-11T13:13:38.997Z,102114.39
2022-10-11T13:16:16.045Z,102108.36
2022-10-11T13:18:46.582Z,102112.73
2022-10-11T13:21:23.058Z,102113.52
2022-10-11T13:23:57.805Z,102119.83
2022-10-11T13:26:26.684Z,102114.34
2022-10-11T13:28:55.707Z,102118.87
2022-10-11T13:31:25.427Z,102125.46
2022-10-11T13:33:56.504Z,102128.52
2022-10-11T13:36:27.052Z,102126.52
2022-10-11T13:39:01.012Z,102119.41
2022-10-11T13:41:30.842Z,102113.85
2022-10-11T13:44:00.385Z,102123.78
2022-10-11T13:46:31.036Z,102124.42
2022-10-11T13:49:05.379Z,102125.50
2022-10-11T13:51:38.136Z,102122.86
2022-10-11T13:54:13.117Z,102128.17
2022-10-11T13:56:49.172Z,102130.08
2022-10-11T13:59:23.685Z,102123.86
2022-10-11T14:02:00.368Z,102129.79
2022-10-11T14:04:40.133Z,102133.26
2022-10-11T14:07:24.745Z,102143.58
2022-10-11T14:09:53.510Z,102142.77
2022-10-11T14:12:39.785Z,102142.52
2022-10-11T14:15:33.001Z,102146.45
2022-10-11T14:18:02.796Z,102146.07
2022-10-11T14:20:37.148Z,102149.37
2022-10-11T14:23:06.148Z,102154.60
2022-10-11T14:25:34.833Z,102158.27
2022-10-11T14:28:02.985Z,102163.53
2022-10-11T14:30:31.719Z,102172.30
2022-10-11T14:33:02.103Z,102166.77
2022-10-11T14:35:32.427Z,102166.88
2022-10-11T14:38:01.056Z,102169.96
2022-10-11T14:40:31.201Z,102171.73
2022-10-11T14:42:59.275Z,102171.17
2022-10-11T14:45:28.512Z,102173.82
2022-10-11T14:47:56.943Z,102172.77
2022-10-11T14:50:48.045Z,102175.43
2022-10-11T14:53:16.635Z,102178.04
2022-10-11T14:55:45.042Z,102184.70
2022-10-11T14:58:15.670Z,102185.67
2022-10-11T15:00:44.245Z,102186.30
2022-10-11T15:03:13.600Z,102194.58
2022-10-11T15:05:41.649Z,102190.20
2022-10-11T15:08:09.747Z,102191.02
2022-10-11T15:10:40.636Z,102199.58
2022-10-11T15:13:10.137Z,102197.35
2022-10-11T15:15:41.204Z,102196.98
2022-10-11T15:18:13.584Z,102195.38
2022-10-11T15:20:43.972Z,102201.77
2022-10-11T15:23:12.496Z,102207.09
2022-10-11T15:25:41.719Z,102202.84
2022-10-11T15:28:20.711Z,102208.35
2022-10-11T15:30:48.816Z,102214.14
2022-10-11T15:33:16.840Z,102217.83
2022-10-11T15:35:44.932Z,102218.33
2022-10-11T15:38:22.246Z,102219.52
2022-10-11T15:40:51.777Z,102225.55
2022-10-11T15:43:24.467Z,102226.58
2022-10-11T15:45:54.166Z,102226.31
2022-10-11T15:48:22.975Z,102226.95
2022-10-11T15:50:53.235Z,102230.56
2022-10-11T15:53:30.168Z,102236.39
2022-10-11T15:56:04.162Z,102243.58
2022-10-11T15:58:38.991Z,102248.81
2022-10-11T16:01:16.306Z,102248.34
2022-10-11T16:03:49.375Z,102249.33
2022-10-11T16:06:19.035Z,102248.05
2022-10-11T16:08:48.171Z,102260.96
2022-10-11T16:11:16.849Z,102262.16
2022-10-11T16:13:45.449Z,102258.86
2022-10-11T16:16:14.088Z,102263.02
2022-10-11T16:18:42.441Z,102266.79
2022-10-11T16:21:15.704Z,102266.92
2022-10-11T16:23:44.029Z,102267.98
2022-10-11T16:26:16.587Z,102266.20
2022-10-11T16:28:45.024Z,102266.59
2022-10-11T16:31:21.327Z,102256.23
2022-10-11T16:33:50.475Z,102274.23
2022-10-11T16:36:40.656Z,102276.14
2022-10-11T16:39:19.718Z,102271.97
2022-10-11T16:41:48.088Z,102271.29
2022-10-11T16:44:19.984Z,102272.02
2022-10-11T16:46:49.109Z,102277.39
2022-10-11T16:49:20.061Z,102280.64
2022-10-11T16:51:49.205Z,102288.34
2022-10-11T16:54:20.492Z,102283.95
2022-10-11T16:56:50.184Z,102282.73
2022-10-11T16:59:18.856Z,102286.08
2022-10-11T17:01:47.251Z,102287.86
2022-10-11T17:04:15.770Z,102292.83
2022-10-11T17:06:44.185Z,102295.10
2022-10-11T17:09:13.494Z,102294.35
2022-10-11T17:11:42.482Z,102299.68
2022-10-11T17:14:12.422Z,102297.42
2022-10-11T17:16:40.783Z,102299.50
2022-10-11T17:19:11.842Z,102299.96
2022-10-11T17:21:40.974Z,102302.09
2022-10-11T17:24:09.604Z,102301.09
2022-10-11T17:26:37.810Z,102298.43
2022-10-11T17:29:06.174Z,102299.81
2022-10-11T17:31:36.634Z,102302.54
2022-10-11T17:34:05.558Z,102301.39
2022-10-11T17:36:36.642Z,102304.39
2022-10-11T17:39:08.327Z,102304.98
2022-10-11T17:41:37.374Z,102303.78
2022-10-11T17:44:05.999Z,102304.77
2022-10-11T17:46:34.586Z,102306.63
2022-10-11T17:49:06.546Z,102310.63
2022-10-11T17:51:36.860Z,102312.65
2022-10-11T17:54:06.583Z,102313.21
2022-10-11T17:56:38.029Z,102298.98
2022-10-11T17:59:08.159Z,102311.66
2022-10-11T18:01:36.684Z,102310.67
2022-10-11T18:04:06.240Z,102309.80
2022-10-11T18:06:39.611Z,102314.02
2022-10-11T18:09:08.225Z,102315.48
2022-10-11T18:11:36.509Z,102301.92
2022-10-11T18:14:05.477Z,102314.98
2022-10-11T18:16:35.968Z,102319.60
2022-10-11T18:19:07.407Z,102320.57
2022-10-11T18:21:37.918Z,102321.10
2022-10-11T18:24:11.229Z,102320.56
2022-10-11T18:26:39.731Z,102317.30
2022-10-11T18:29:08.008Z,102319.84
2022-10-11T18:31:36.343Z,102323.02
2022-10-11T18:34:08.739Z,102320.98
2022-10-11T18:36:38.245Z,102323.80
2022-10-11T18:39:11.209Z,102326.06
2022-10-11T18:41:40.200Z,102321.41
2022-10-11T18:44:11.131Z,102324.92
2022-10-11T18:46:39.355Z,102325.67
2022-10-11T18:49:08.968Z,102323.19
2022-10-11T18:51:40.148Z,102321.05
2022-10-11T18:54:13.890Z,102322.95
2022-10-11T18:56:45.457Z,102327.23
2022-10-11T18:59:13.731Z,102333.65
2022-10-11T19:01:44.784Z,102332.89
2022-10-11T19:04:16.130Z,102333.80
2022-10-11T19:06:49.966Z,102331.04
2022-10-11T19:09:24.940Z,102330.50
2022-10-11T19:11:55.561Z,102324.77
2022-10-11T19:14:28.414Z,102329.75
2022-10-11T19:16:57.760Z,102330.24
2022-10-11T19:19:28.019Z,102328.02
2022-10-11T19:21:56.342Z,102330.74
2022-10-11T19:24:26.843Z,102328.13
2022-10-11T19:27:01.197Z,102317.36
2022-10-11T19:29:31.799Z,102326.85
2022-10-11T19:32:03.122Z,102325.86
2022-10-11T19:34:32.913Z,102322.52
2022-10-11T19:37:03.273Z,102329.39
2022-10-11T19:39:32.328Z,102330.48
2022-10-11T19:42:01.027Z,102331.93
2022-10-11T19:44:29.804Z,102322.91
2022-10-11T19:47:02.755Z,102332.94
2022-10-11T19:49:32.587Z,102333.55
2022-10-11T19:52:01.469Z,102331.35
2022-10-11T19:54:30.005Z,102329.20
2022-10-11T19:56:58.268Z,102332.00
2022-10-11T19:59:28.197Z,102334.88
2022-10-11T20:01:56.461Z,102336.53
2022-10-11T20:04:52.065Z,102335.77
2022-10-11T20:07:13.012Z,102334.41
2022-10-11T20:09:41.291Z,102332.16
2022-10-11T20:12:09.556Z,102336.02
2022-10-11T20:14:37.816Z,102337.74
2022-10-11T20:17:06.053Z,102334.53
2022-10-11T20:19:34.357Z,102334.99
2022-10-11T20:22:02.556Z,102334.79
2022-10-11T20:24:33.640Z,102336.52
2022-10-11T20:27:04.778Z,102323.54
2022-10-11T20:29:33.540Z,102340.56
2022-10-11T20:32:01.835Z,102340.94
2022-10-11T20:34:30.761Z,102336.23
2022-10-11T20:36:59.609Z,102335.77
2022-10-11T20:39:27.877Z,102325.66
2022-10-11T20:41:56.079Z,102338.02
2022-10-11T20:44:24.626Z,102340.59
2022-10-11T20:46:52.868Z,102339.88
2022-10-11T20:49:22.628Z,102327.52
2022-10-11T20:51:50.933Z,102342.12
2022-10-11T20:54:19.421Z,102329.65
2022-10-11T20:56:47.711Z,102339.50
2022-10-11T20:59:15.967Z,102341.83
2022-10-11T21:01:44.299Z,102340.98
2022-10-11T21:04:18.761Z,102333.20
2022-10-11T21:06:48.711Z,102345.16
2022-10-11T21:09:17.598Z,102342.91
2022-10-11T21:11:46.861Z,102344.96
2022-10-11T21:14:15.245Z,102336.44
2022-10-11T21:16:43.936Z,102338.62
2022-10-11T21:19:16.085Z,102348.25
2022-10-11T21:21:52.575Z,102349.23
2022-10-11T21:24:22.841Z,102350.02
2022-10-11T21:26:51.132Z,102354.79
2022-10-11T21:29:19.441Z,102353.58
2022-10-11T21:31:47.654Z,102356.96
2022-10-11T21:34:16.225Z,102356.90
2022-10-11T21:36:44.665Z,102341.55
2022-10-11T21:39:12.898Z,102356.00
2022-10-11T21:41:42.423Z,102353.97
2022-10-11T21:44:11.013Z,102345.74
2022-10-11T21:47:05.350Z,102359.69
2022-10-11T21:49:27.916Z,102360.77
2022-10-11T21:51:56.651Z,102365.22
2022-10-11T21:54:24.880Z,102366.09
2022-10-11T21:56:53.193Z,102365.02
2022-10-11T21:59:21.878Z,102361.83
2022-10-11T22:01:50.397Z,102361.33
2022-10-11T22:04:18.804Z,102363.22
2022-10-11T22:06:47.239Z,102356.90
2022-10-11T22:09:15.500Z,102366.31
2022-10-11T22:11:43.762Z,102368.79
2022-10-11T22:14:12.069Z,102365.92
2022-10-11T22:16:41.528Z,102363.61
2022-10-11T22:19:09.740Z,102364.73
2022-10-11T22:21:42.556Z,102363.19
2022-10-11T22:24:13.109Z,102360.78
2022-10-11T22:26:41.332Z,102345.21
2022-10-11T22:29:09.834Z,102360.95
2022-10-11T22:31:38.218Z,102351.08
2022-10-11T22:34:06.732Z,102357.55
2022-10-11T22:36:35.028Z,102358.73
2022-10-11T22:39:08.094Z,102360.23
2022-10-11T22:41:37.762Z,102362.80
2022-10-11T22:44:06.340Z,102366.05
2022-10-11T22:46:34.624Z,102364.45
2022-10-11T22:49:02.956Z,102360.30
2022-10-11T22:51:31.440Z,102359.26
2022-10-11T22:53:59.725Z,102365.48
2022-10-11T22:56:27.977Z,102372.30
2022-10-11T22:58:56.228Z,102372.42
2022-10-11T23:01:24.412Z,102370.05
2022-10-11T23:03:52.713Z,102370.23
2022-10-11T23:06:20.974Z,102375.76
2022-10-11T23:08:49.406Z,102375.41
2022-10-11T23:11:18.299Z,102372.48
2022-10-11T23:13:46.474Z,102374.45
2022-10-11T23:16:14.749Z,102369.64
2022-10-11T23:18:43.210Z,102371.31
2022-10-11T23:21:11.586Z,102371.02
2022-10-11T23:23:40.046Z,102374.52
2022-10-11T23:26:13.780Z,102374.17
2022-10-11T23:28:43.328Z,102377.67
2022-10-11T23:31:16.589Z,102375.79
2022-10-11T23:33:46.262Z,102378.34
2022-10-11T23:36:20.341Z,102378.58
2022-10-11T23:38:57.172Z,102322.91
2022-10-11T23:41:27.749Z,102376.50
2022-10-11T23:43:56.250Z,102379.89
2022-10-11T23:46:25.050Z,102377.79
2022-10-11T23:48:53.326Z,102380.30
2022-10-11T23:51:21.607Z,102377.98
2022-10-11T23:53:49.886Z,102383.74
2022-10-11T23:56:18.079Z,102390.07
2022-10-11T23:58:46.326Z,102389.05
